sensor_id;sensor_type;location;lat;lon;timestamp;temperature;humidity
10062;DHT22;5070;52.382;5.270;2024-02-26T00:02:20;23.50;56.00
10062;DHT22;5070;52.382;5.270;2024-02-26T00:04:48;23.40;56.00
10062;DHT22;5070;52.382;5.270;2024-02-26T00:07:16;23.40;56.10
10062;DHT22;5070;52.382;5.270;2024-02-26T00:09:44;23.40;56.10
10062;DHT22;5070;52.382;5.270;2024-02-26T00:12:14;23.30;56.10
10062;DHT22;5070;52.382;5.270;2024-02-26T00:14:42;23.30;56.10
10062;DHT22;5070;52.382;5.270;2024-02-26T00:17:12;23.20;56.00
10062;DHT22;5070;52.382;5.270;2024-02-26T00:19:40;23.20;56.00
10062;DHT22;5070;52.382;5.270;2024-02-26T00:22:08;23.20;55.90
10062;DHT22;5070;52.382;5.270;2024-02-26T00:24:36;23.20;56.00
10062;DHT22;5070;52.382;5.270;2024-02-26T00:27:04;23.20;56.00
10062;DHT22;5070;52.382;5.270;2024-02-26T00:29:33;23.10;55.80
10062;DHT22;5070;52.382;5.270;2024-02-26T00:32:01;23.10;55.90
10062;DHT22;5070;52.382;5.270;2024-02-26T00:34:29;23.10;55.80
10062;DHT22;5070;52.382;5.270;2024-02-26T00:36:58;23.10;55.80
10062;DHT22;5070;52.382;5.270;2024-02-26T00:39:26;23.00;55.80
10062;DHT22;5070;52.382;5.270;2024-02-26T00:41:54;23.00;55.80
10062;DHT22;5070;52.382;5.270;2024-02-26T00:44:22;23.00;55.70
10062;DHT22;5070;52.382;5.270;2024-02-26T00:46:51;23.00;55.70
10062;DHT22;5070;52.382;5.270;2024-02-26T00:49:20;22.90;55.70
10062;DHT22;5070;52.382;5.270;2024-02-26T00:51:48;22.90;55.60
10062;DHT22;5070;52.382;5.270;2024-02-26T00:54:16;22.90;55.60
10062;DHT22;5070;52.382;5.270;2024-02-26T00:56:44;22.90;55.60
10062;DHT22;5070;52.382;5.270;2024-02-26T00:59:12;22.90;55.50
10062;DHT22;5070;52.382;5.270;2024-02-26T01:01:40;22.80;55.50
10062;DHT22;5070;52.382;5.270;2024-02-26T01:04:09;22.80;55.50
10062;DHT22;5070;52.382;5.270;2024-02-26T01:06:38;22.80;55.60
10062;DHT22;5070;52.382;5.270;2024-02-26T01:09:06;22.70;55.60
10062;DHT22;5070;52.382;5.270;2024-02-26T01:11:36;22.70;55.70
10062;DHT22;5070;52.382;5.270;2024-02-26T01:14:04;22.70;55.70
10062;DHT22;5070;52.382;5.270;2024-02-26T01:16:32;22.70;55.70
10062;DHT22;5070;52.382;5.270;2024-02-26T01:19:00;22.60;55.70
10062;DHT22;5070;52.382;5.270;2024-02-26T01:21:30;22.60;55.70
10062;DHT22;5070;52.382;5.270;2024-02-26T01:23:59;22.60;55.70
10062;DHT22;5070;52.382;5.270;2024-02-26T01:26:27;22.60;55.70
10062;DHT22;5070;52.382;5.270;2024-02-26T01:28:54;22.60;55.70
10062;DHT22;5070;52.382;5.270;2024-02-26T01:31:22;22.50;55.70
10062;DHT22;5070;52.382;5.270;2024-02-26T01:33:50;22.50;55.70
10062;DHT22;5070;52.382;5.270;2024-02-26T01:36:19;22.50;55.70
10062;DHT22;5070;52.382;5.270;2024-02-26T01:38:49;22.50;55.70
10062;DHT22;5070;52.382;5.270;2024-02-26T01:41:17;22.40;55.60
10062;DHT22;5070;52.382;5.270;2024-02-26T01:43:45;22.40;55.60
10062;DHT22;5070;52.382;5.270;2024-02-26T01:46:14;22.40;55.50
10062;DHT22;5070;52.382;5.270;2024-02-26T01:48:42;22.40;55.50
10062;DHT22;5070;52.382;5.270;2024-02-26T01:51:12;22.30;55.50
10062;DHT22;5070;52.382;5.270;2024-02-26T01:53:42;22.30;55.60
10062;DHT22;5070;52.382;5.270;2024-02-26T01:56:12;22.30;55.50
10062;DHT22;5070;52.382;5.270;2024-02-26T01:58:41;22.30;55.40
10062;DHT22;5070;52.382;5.270;2024-02-26T02:01:09;22.20;55.40
10062;DHT22;5070;52.382;5.270;2024-02-26T02:03:37;22.20;55.40
10062;DHT22;5070;52.382;5.270;2024-02-26T02:06:06;22.20;55.40
10062;DHT22;5070;52.382;5.270;2024-02-26T02:08:34;22.10;55.20
10062;DHT22;5070;52.382;5.270;2024-02-26T02:11:03;22.10;55.30
10062;DHT22;5070;52.382;5.270;2024-02-26T02:13:32;22.10;55.40
10062;DHT22;5070;52.382;5.270;2024-02-26T02:16:00;22.00;55.40
10062;DHT22;5070;52.382;5.270;2024-02-26T02:18:28;22.00;55.40
10062;DHT22;5070;52.382;5.270;2024-02-26T02:21:00;22.00;55.40
10062;DHT22;5070;52.382;5.270;2024-02-26T02:23:28;21.90;55.40
10062;DHT22;5070;52.382;5.270;2024-02-26T02:25:56;22.00;55.40
10062;DHT22;5070;52.382;5.270;2024-02-26T02:28:26;21.90;55.40
10062;DHT22;5070;52.382;5.270;2024-02-26T02:30:55;21.90;55.40
10062;DHT22;5070;52.382;5.270;2024-02-26T02:33:25;21.90;55.40
10062;DHT22;5070;52.382;5.270;2024-02-26T02:35:54;21.90;55.40
10062;DHT22;5070;52.382;5.270;2024-02-26T02:38:24;21.80;55.30
10062;DHT22;5070;52.382;5.270;2024-02-26T02:40:52;21.80;55.30
10062;DHT22;5070;52.382;5.270;2024-02-26T02:43:20;21.80;55.30
10062;DHT22;5070;52.382;5.270;2024-02-26T02:45:48;21.70;55.30
10062;DHT22;5070;52.382;5.270;2024-02-26T02:48:16;21.70;55.30
10062;DHT22;5070;52.382;5.270;2024-02-26T02:50:45;21.70;55.30
10062;DHT22;5070;52.382;5.270;2024-02-26T02:53:13;21.70;55.30
10062;DHT22;5070;52.382;5.270;2024-02-26T02:55:44;21.60;55.30
10062;DHT22;5070;52.382;5.270;2024-02-26T02:58:12;21.70;55.90
10062;DHT22;5070;52.382;5.270;2024-02-26T03:00:40;21.60;55.40
10062;DHT22;5070;52.382;5.270;2024-02-26T03:03:08;21.60;55.40
10062;DHT22;5070;52.382;5.270;2024-02-26T03:05:36;21.60;55.30
10062;DHT22;5070;52.382;5.270;2024-02-26T03:08:04;21.60;55.40
10062;DHT22;5070;52.382;5.270;2024-02-26T03:10:32;21.50;55.40
10062;DHT22;5070;52.382;5.270;2024-02-26T03:13:01;21.50;55.40
10062;DHT22;5070;52.382;5.270;2024-02-26T03:15:29;21.50;55.40
10062;DHT22;5070;52.382;5.270;2024-02-26T03:17:58;21.50;55.50
10062;DHT22;5070;52.382;5.270;2024-02-26T03:20:26;21.40;55.40
10062;DHT22;5070;52.382;5.270;2024-02-26T03:22:53;21.40;55.50
10062;DHT22;5070;52.382;5.270;2024-02-26T03:25:21;21.40;55.50
10062;DHT22;5070;52.382;5.270;2024-02-26T03:27:49;21.40;55.50
10062;DHT22;5070;52.382;5.270;2024-02-26T03:30:18;21.40;55.50
10062;DHT22;5070;52.382;5.270;2024-02-26T03:32:46;21.30;55.50
10062;DHT22;5070;52.382;5.270;2024-02-26T03:35:15;21.30;55.50
10062;DHT22;5070;52.382;5.270;2024-02-26T03:37:43;21.30;55.50
10062;DHT22;5070;52.382;5.270;2024-02-26T03:40:12;21.30;55.50
10062;DHT22;5070;52.382;5.270;2024-02-26T03:42:41;21.30;55.50
10062;DHT22;5070;52.382;5.270;2024-02-26T03:45:10;21.20;55.40
10062;DHT22;5070;52.382;5.270;2024-02-26T03:47:39;21.20;55.40
10062;DHT22;5070;52.382;5.270;2024-02-26T03:50:08;21.20;55.40
10062;DHT22;5070;52.382;5.270;2024-02-26T03:52:36;21.20;55.40
10062;DHT22;5070;52.382;5.270;2024-02-26T03:55:04;21.20;55.40
10062;DHT22;5070;52.382;5.270;2024-02-26T03:57:32;21.10;55.30
10062;DHT22;5070;52.382;5.270;2024-02-26T04:00:00;21.20;55.40
10062;DHT22;5070;52.382;5.270;2024-02-26T04:02:36;21.10;55.30
10062;DHT22;5070;52.382;5.270;2024-02-26T04:05:09;21.10;55.30
10062;DHT22;5070;52.382;5.270;2024-02-26T04:07:38;21.10;55.40
10062;DHT22;5070;52.382;5.270;2024-02-26T04:10:09;21.00;55.40
10062;DHT22;5070;52.382;5.270;2024-02-26T04:12:38;21.10;55.50
10062;DHT22;5070;52.382;5.270;2024-02-26T04:15:08;21.00;55.40
10062;DHT22;5070;52.382;5.270;2024-02-26T04:17:37;21.00;55.40
10062;DHT22;5070;52.382;5.270;2024-02-26T04:20:12;21.00;55.40
10062;DHT22;5070;52.382;5.270;2024-02-26T04:22:40;21.00;55.40
10062;DHT22;5070;52.382;5.270;2024-02-26T04:25:08;21.00;55.40
10062;DHT22;5070;52.382;5.270;2024-02-26T04:27:37;20.90;55.40
10062;DHT22;5070;52.382;5.270;2024-02-26T04:30:06;20.90;55.40
10062;DHT22;5070;52.382;5.270;2024-02-26T04:32:34;20.90;55.40
10062;DHT22;5070;52.382;5.270;2024-02-26T04:35:02;20.90;55.40
10062;DHT22;5070;52.382;5.270;2024-02-26T04:37:32;20.80;55.40
10062;DHT22;5070;52.382;5.270;2024-02-26T04:40:00;20.80;55.40
10062;DHT22;5070;52.382;5.270;2024-02-26T04:42:31;20.80;55.50
10062;DHT22;5070;52.382;5.270;2024-02-26T04:44:59;20.80;55.50
10062;DHT22;5070;52.382;5.270;2024-02-26T04:47:27;20.80;55.50
10062;DHT22;5070;52.382;5.270;2024-02-26T04:50:00;20.70;55.50
10062;DHT22;5070;52.382;5.270;2024-02-26T04:52:31;20.70;55.50
10062;DHT22;5070;52.382;5.270;2024-02-26T04:55:00;20.70;55.50
10062;DHT22;5070;52.382;5.270;2024-02-26T04:57:30;20.70;55.50
10062;DHT22;5070;52.382;5.270;2024-02-26T04:59:58;20.70;55.50
10062;DHT22;5070;52.382;5.270;2024-02-26T05:02:26;20.70;55.50
10062;DHT22;5070;52.382;5.270;2024-02-26T05:04:54;20.70;55.50
10062;DHT22;5070;52.382;5.270;2024-02-26T05:07:22;20.70;55.50
10062;DHT22;5070;52.382;5.270;2024-02-26T05:09:50;20.60;55.50
10062;DHT22;5070;52.382;5.270;2024-02-26T05:12:19;20.60;55.50
10062;DHT22;5070;52.382;5.270;2024-02-26T05:14:47;20.60;55.50
10062;DHT22;5070;52.382;5.270;2024-02-26T05:17:15;20.60;55.50
10062;DHT22;5070;52.382;5.270;2024-02-26T05:19:43;20.60;55.50
10062;DHT22;5070;52.382;5.270;2024-02-26T05:22:11;20.50;55.50
10062;DHT22;5070;52.382;5.270;2024-02-26T05:24:39;20.50;55.50
10062;DHT22;5070;52.382;5.270;2024-02-26T05:27:07;20.40;55.50
10062;DHT22;5070;52.382;5.270;2024-02-26T05:29:36;20.50;55.60
10062;DHT22;5070;52.382;5.270;2024-02-26T05:32:05;20.50;55.60
10062;DHT22;5070;52.382;5.270;2024-02-26T05:34:33;20.40;55.60
10062;DHT22;5070;52.382;5.270;2024-02-26T05:37:01;20.40;55.60
10062;DHT22;5070;52.382;5.270;2024-02-26T05:39:29;20.40;55.60
10062;DHT22;5070;52.382;5.270;2024-02-26T05:41:57;20.40;55.70
10062;DHT22;5070;52.382;5.270;2024-02-26T05:44:26;20.40;55.70
10062;DHT22;5070;52.382;5.270;2024-02-26T05:46:56;20.50;55.80
10062;DHT22;5070;52.382;5.270;2024-02-26T05:49:24;20.50;55.90
10062;DHT22;5070;52.382;5.270;2024-02-26T05:51:52;20.50;55.60
10062;DHT22;5070;52.382;5.270;2024-02-26T05:54:24;20.60;55.50
10062;DHT22;5070;52.382;5.270;2024-02-26T05:56:52;20.70;55.30
10062;DHT22;5070;52.382;5.270;2024-02-26T05:59:20;20.70;55.10
10062;DHT22;5070;52.382;5.270;2024-02-26T06:01:48;20.80;55.50
10062;DHT22;5070;52.382;5.270;2024-02-26T06:04:18;20.80;55.80
10062;DHT22;5070;52.382;5.270;2024-02-26T06:06:46;20.80;55.70
10062;DHT22;5070;52.382;5.270;2024-02-26T06:09:14;20.80;55.60
10062;DHT22;5070;52.382;5.270;2024-02-26T06:11:42;20.80;55.90
10062;DHT22;5070;52.382;5.270;2024-02-26T06:14:10;20.90;55.50
10062;DHT22;5070;52.382;5.270;2024-02-26T06:16:39;20.90;56.10
10062;DHT22;5070;52.382;5.270;2024-02-26T06:19:07;20.90;56.00
10062;DHT22;5070;52.382;5.270;2024-02-26T06:21:40;20.90;56.00
10062;DHT22;5070;52.382;5.270;2024-02-26T06:24:08;21.00;55.80
10062;DHT22;5070;52.382;5.270;2024-02-26T06:26:37;21.00;55.90
10062;DHT22;5070;52.382;5.270;2024-02-26T06:29:05;21.00;55.70
10062;DHT22;5070;52.382;5.270;2024-02-26T06:31:33;21.00;55.90
10062;DHT22;5070;52.382;5.270;2024-02-26T06:34:01;21.00;56.10
10062;DHT22;5070;52.382;5.270;2024-02-26T06:36:30;21.00;56.60
10062;DHT22;5070;52.382;5.270;2024-02-26T06:39:01;21.00;56.20
10062;DHT22;5070;52.382;5.270;2024-02-26T06:41:29;21.00;56.10
10062;DHT22;5070;52.382;5.270;2024-02-26T06:43:57;21.00;55.60
10062;DHT22;5070;52.382;5.270;2024-02-26T06:46:25;21.10;56.10
10062;DHT22;5070;52.382;5.270;2024-02-26T06:48:55;21.10;55.60
10062;DHT22;5070;52.382;5.270;2024-02-26T06:51:23;21.10;55.70
10062;DHT22;5070;52.382;5.270;2024-02-26T06:53:52;21.10;56.20
10062;DHT22;5070;52.382;5.270;2024-02-26T06:56:21;21.10;55.90
10062;DHT22;5070;52.382;5.270;2024-02-26T06:58:49;21.20;56.00
10062;DHT22;5070;52.382;5.270;2024-02-26T07:01:18;21.20;56.00
10062;DHT22;5070;52.382;5.270;2024-02-26T07:03:46;21.30;55.90
10062;DHT22;5070;52.382;5.270;2024-02-26T07:06:14;21.30;55.60
10062;DHT22;5070;52.382;5.270;2024-02-26T07:08:42;21.30;55.50
10062;DHT22;5070;52.382;5.270;2024-02-26T07:11:10;21.30;55.80
10062;DHT22;5070;52.382;5.270;2024-02-26T07:13:40;21.30;55.60
10062;DHT22;5070;52.382;5.270;2024-02-26T07:16:09;21.40;55.60
10062;DHT22;5070;52.382;5.270;2024-02-26T07:18:38;21.40;55.60
10062;DHT22;5070;52.382;5.270;2024-02-26T07:21:07;21.40;55.40
10062;DHT22;5070;52.382;5.270;2024-02-26T07:23:35;21.40;55.30
10062;DHT22;5070;52.382;5.270;2024-02-26T07:26:03;21.40;55.10
10062;DHT22;5070;52.382;5.270;2024-02-26T07:28:31;21.40;55.10
10062;DHT22;5070;52.382;5.270;2024-02-26T07:31:00;21.50;55.00
10062;DHT22;5070;52.382;5.270;2024-02-26T07:33:28;21.50;55.50
10062;DHT22;5070;52.382;5.270;2024-02-26T07:36:00;21.50;54.90
10062;DHT22;5070;52.382;5.270;2024-02-26T07:38:28;21.50;55.10
10062;DHT22;5070;52.382;5.270;2024-02-26T07:41:08;21.50;55.20
10062;DHT22;5070;52.382;5.270;2024-02-26T07:43:36;21.50;55.30
10062;DHT22;5070;52.382;5.270;2024-02-26T07:46:06;21.40;55.50
10062;DHT22;5070;52.382;5.270;2024-02-26T07:48:34;21.40;55.90
10062;DHT22;5070;52.382;5.270;2024-02-26T07:51:02;21.40;56.40
10062;DHT22;5070;52.382;5.270;2024-02-26T07:53:31;21.40;55.90
10062;DHT22;5070;52.382;5.270;2024-02-26T07:55:59;21.30;55.70
10062;DHT22;5070;52.382;5.270;2024-02-26T07:58:27;21.30;55.70
10062;DHT22;5070;52.382;5.270;2024-02-26T08:00:54;21.20;55.60
10062;DHT22;5070;52.382;5.270;2024-02-26T08:03:24;21.20;56.20
10062;DHT22;5070;52.382;5.270;2024-02-26T08:05:52;21.10;55.80
10062;DHT22;5070;52.382;5.270;2024-02-26T08:08:20;21.10;55.90
10062;DHT22;5070;52.382;5.270;2024-02-26T08:10:48;21.10;55.80
10062;DHT22;5070;52.382;5.270;2024-02-26T08:13:16;21.10;55.70
10062;DHT22;5070;52.382;5.270;2024-02-26T08:15:44;21.00;55.60
10062;DHT22;5070;52.382;5.270;2024-02-26T08:18:12;21.00;55.60
10062;DHT22;5070;52.382;5.270;2024-02-26T08:20:42;21.00;55.60
10062;DHT22;5070;52.382;5.270;2024-02-26T08:23:10;21.00;55.60
10062;DHT22;5070;52.382;5.270;2024-02-26T08:25:38;21.00;55.60
10062;DHT22;5070;52.382;5.270;2024-02-26T08:28:06;20.90;55.60
10062;DHT22;5070;52.382;5.270;2024-02-26T08:30:34;20.90;55.70
10062;DHT22;5070;52.382;5.270;2024-02-26T08:33:02;20.90;55.60
10062;DHT22;5070;52.382;5.270;2024-02-26T08:35:30;20.90;55.60
10062;DHT22;5070;52.382;5.270;2024-02-26T08:38:00;20.80;55.50
10062;DHT22;5070;52.382;5.270;2024-02-26T08:40:28;20.90;55.60
10062;DHT22;5070;52.382;5.270;2024-02-26T08:42:56;20.80;55.50
10062;DHT22;5070;52.382;5.270;2024-02-26T08:45:24;20.80;55.40
10062;DHT22;5070;52.382;5.270;2024-02-26T08:47:56;20.70;55.40
10062;DHT22;5070;52.382;5.270;2024-02-26T08:50:25;20.70;55.50
10062;DHT22;5070;52.382;5.270;2024-02-26T08:52:53;20.70;55.50
10062;DHT22;5070;52.382;5.270;2024-02-26T08:55:23;20.70;55.40
10062;DHT22;5070;52.382;5.270;2024-02-26T08:57:51;20.70;55.50
10062;DHT22;5070;52.382;5.270;2024-02-26T09:00:19;20.60;55.40
10062;DHT22;5070;52.382;5.270;2024-02-26T09:02:48;20.60;55.60
10062;DHT22;5070;52.382;5.270;2024-02-26T09:05:16;20.60;55.50
10062;DHT22;5070;52.382;5.270;2024-02-26T09:07:44;20.60;55.40
10062;DHT22;5070;52.382;5.270;2024-02-26T09:10:13;20.60;55.40
10062;DHT22;5070;52.382;5.270;2024-02-26T09:12:42;20.50;55.40
10062;DHT22;5070;52.382;5.270;2024-02-26T09:15:10;20.50;55.40
10062;DHT22;5070;52.382;5.270;2024-02-26T09:17:39;20.50;55.40
10062;DHT22;5070;52.382;5.270;2024-02-26T09:20:07;20.40;55.40
10062;DHT22;5070;52.382;5.270;2024-02-26T09:22:36;20.40;55.40
10062;DHT22;5070;52.382;5.270;2024-02-26T09:25:05;20.40;55.50
10062;DHT22;5070;52.382;5.270;2024-02-26T09:27:34;20.40;55.50
10062;DHT22;5070;52.382;5.270;2024-02-26T09:30:06;20.30;55.40
10062;DHT22;5070;52.382;5.270;2024-02-26T09:32:34;20.40;55.40
10062;DHT22;5070;52.382;5.270;2024-02-26T09:35:03;20.30;55.40
10062;DHT22;5070;52.382;5.270;2024-02-26T09:37:31;20.30;55.40
10062;DHT22;5070;52.382;5.270;2024-02-26T09:39:59;20.30;55.40
10062;DHT22;5070;52.382;5.270;2024-02-26T09:42:27;20.30;55.40
10062;DHT22;5070;52.382;5.270;2024-02-26T09:45:00;20.30;55.40
10062;DHT22;5070;52.382;5.270;2024-02-26T09:47:31;20.30;55.40
10062;DHT22;5070;52.382;5.270;2024-02-26T09:50:01;20.20;55.90
10062;DHT22;5070;52.382;5.270;2024-02-26T09:52:31;20.10;55.60
10062;DHT22;5070;52.382;5.270;2024-02-26T09:55:00;20.10;55.60
10062;DHT22;5070;52.382;5.270;2024-02-26T09:57:31;20.10;55.70
10062;DHT22;5070;52.382;5.270;2024-02-26T10:00:00;20.10;55.80
10062;DHT22;5070;52.382;5.270;2024-02-26T10:02:36;20.10;55.90
10062;DHT22;5070;52.382;5.270;2024-02-26T10:05:07;20.10;55.80
10062;DHT22;5070;52.382;5.270;2024-02-26T10:07:38;20.10;55.80
10062;DHT22;5070;52.382;5.270;2024-02-26T10:10:07;20.10;55.70
10062;DHT22;5070;52.382;5.270;2024-02-26T10:12:35;20.00;55.80
10062;DHT22;5070;52.382;5.270;2024-02-26T10:15:04;20.00;55.70
10062;DHT22;5070;52.382;5.270;2024-02-26T10:17:36;20.00;55.80
10062;DHT22;5070;52.382;5.270;2024-02-26T10:20:15;20.00;55.80
10062;DHT22;5070;52.382;5.270;2024-02-26T10:22:45;20.10;56.00
10062;DHT22;5070;52.382;5.270;2024-02-26T10:25:13;20.20;56.60
10062;DHT22;5070;52.382;5.270;2024-02-26T10:27:41;20.20;56.80
10062;DHT22;5070;52.382;5.270;2024-02-26T10:30:17;20.20;56.30
10062;DHT22;5070;52.382;5.270;2024-02-26T10:32:48;20.30;56.60
10062;DHT22;5070;52.382;5.270;2024-02-26T10:35:17;20.30;56.70
10062;DHT22;5070;52.382;5.270;2024-02-26T10:37:48;20.30;56.80
10062;DHT22;5070;52.382;5.270;2024-02-26T10:40:16;20.40;56.30
10062;DHT22;5070;52.382;5.270;2024-02-26T10:42:44;20.40;55.90
10062;DHT22;5070;52.382;5.270;2024-02-26T10:45:13;20.50;55.80
10062;DHT22;5070;52.382;5.270;2024-02-26T10:47:41;20.50;55.50
10062;DHT22;5070;52.382;5.270;2024-02-26T10:50:13;20.50;55.30
10062;DHT22;5070;52.382;5.270;2024-02-26T10:52:42;20.60;55.30
10062;DHT22;5070;52.382;5.270;2024-02-26T10:55:15;20.60;55.30
10062;DHT22;5070;52.382;5.270;2024-02-26T10:57:46;20.60;55.10
10062;DHT22;5070;52.382;5.270;2024-02-26T11:00:16;20.60;55.00
10062;DHT22;5070;52.382;5.270;2024-02-26T11:02:45;20.60;55.20
10062;DHT22;5070;52.382;5.270;2024-02-26T11:05:15;20.60;56.00
10062;DHT22;5070;52.382;5.270;2024-02-26T11:07:44;20.60;55.80
10062;DHT22;5070;52.382;5.270;2024-02-26T11:10:13;20.60;56.40
10062;DHT22;5070;52.382;5.270;2024-02-26T11:12:43;20.60;56.60
10062;DHT22;5070;52.382;5.270;2024-02-26T11:15:12;20.60;56.00
10062;DHT22;5070;52.382;5.270;2024-02-26T11:17:41;20.50;55.50
10062;DHT22;5070;52.382;5.270;2024-02-26T11:20:11;20.50;55.60
10062;DHT22;5070;52.382;5.270;2024-02-26T11:22:42;20.50;55.60
10062;DHT22;5070;52.382;5.270;2024-02-26T11:25:10;20.50;55.70
10062;DHT22;5070;52.382;5.270;2024-02-26T11:27:42;20.40;55.70
10062;DHT22;5070;52.382;5.270;2024-02-26T11:30:12;20.50;55.70
10062;DHT22;5070;52.382;5.270;2024-02-26T11:32:44;20.40;56.20
10062;DHT22;5070;52.382;5.270;2024-02-26T11:35:12;20.40;55.70
10062;DHT22;5070;52.382;5.270;2024-02-26T11:37:51;20.40;55.80
10062;DHT22;5070;52.382;5.270;2024-02-26T11:40:20;20.30;55.80
10062;DHT22;5070;52.382;5.270;2024-02-26T11:42:49;20.30;55.80
10062;DHT22;5070;52.382;5.270;2024-02-26T11:48:22;20.30;55.90
10062;DHT22;5070;52.382;5.270;2024-02-26T11:50:51;20.20;55.90
10062;DHT22;5070;52.382;5.270;2024-02-26T11:53:23;20.20;55.90
10062;DHT22;5070;52.382;5.270;2024-02-26T11:56:14;20.20;55.80
10062;DHT22;5070;52.382;5.270;2024-02-26T11:58:48;20.10;55.80
10062;DHT22;5070;52.382;5.270;2024-02-26T12:01:38;20.20;55.80
10062;DHT22;5070;52.382;5.270;2024-02-26T12:04:07;20.10;55.60
10062;DHT22;5070;52.382;5.270;2024-02-26T12:06:46;20.10;55.70
10062;DHT22;5070;52.382;5.270;2024-02-26T12:09:31;20.10;55.70
10062;DHT22;5070;52.382;5.270;2024-02-26T12:12:01;20.10;55.70
10062;DHT22;5070;52.382;5.270;2024-02-26T12:14:32;20.10;55.70
10062;DHT22;5070;52.382;5.270;2024-02-26T12:17:01;20.10;55.60
10062;DHT22;5070;52.382;5.270;2024-02-26T12:19:30;20.00;55.60
10062;DHT22;5070;52.382;5.270;2024-02-26T12:21:58;20.00;55.60
10062;DHT22;5070;52.382;5.270;2024-02-26T12:24:26;20.10;55.60
10062;DHT22;5070;52.382;5.270;2024-02-26T12:26:56;20.00;55.60
10062;DHT22;5070;52.382;5.270;2024-02-26T12:29:25;20.00;55.60
10062;DHT22;5070;52.382;5.270;2024-02-26T12:31:53;20.00;55.50
10062;DHT22;5070;52.382;5.270;2024-02-26T12:34:21;20.00;55.70
10062;DHT22;5070;52.382;5.270;2024-02-26T12:36:49;20.00;55.50
10062;DHT22;5070;52.382;5.270;2024-02-26T12:39:17;19.90;55.70
10062;DHT22;5070;52.382;5.270;2024-02-26T12:41:47;19.90;55.60
10062;DHT22;5070;52.382;5.270;2024-02-26T12:44:17;19.90;55.50
10062;DHT22;5070;52.382;5.270;2024-02-26T12:46:45;19.90;56.00
10062;DHT22;5070;52.382;5.270;2024-02-26T12:49:15;19.90;69.70
10062;DHT22;5070;52.382;5.270;2024-02-26T12:51:45;20.00;60.20
10062;DHT22;5070;52.382;5.270;2024-02-26T12:54:13;20.10;59.00
10062;DHT22;5070;52.382;5.270;2024-02-26T12:56:42;20.10;58.70
10062;DHT22;5070;52.382;5.270;2024-02-26T12:59:10;20.10;58.60
10062;DHT22;5070;52.382;5.270;2024-02-26T13:01:41;20.20;58.60
10062;DHT22;5070;52.382;5.270;2024-02-26T13:04:09;20.20;58.40
10062;DHT22;5070;52.382;5.270;2024-02-26T13:06:37;20.30;58.10
10062;DHT22;5070;52.382;5.270;2024-02-26T13:09:06;20.30;57.80
10062;DHT22;5070;52.382;5.270;2024-02-26T13:11:34;20.40;57.60
10062;DHT22;5070;52.382;5.270;2024-02-26T13:14:02;20.40;57.40
10062;DHT22;5070;52.382;5.270;2024-02-26T13:16:34;20.40;57.20
10062;DHT22;5070;52.382;5.270;2024-02-26T13:19:10;20.40;57.20
10062;DHT22;5070;52.382;5.270;2024-02-26T13:21:38;20.50;57.10
10062;DHT22;5070;52.382;5.270;2024-02-26T13:24:06;20.50;57.00
10062;DHT22;5070;52.382;5.270;2024-02-26T13:26:34;20.60;56.90
10062;DHT22;5070;52.382;5.270;2024-02-26T13:29:02;20.60;56.80
10062;DHT22;5070;52.382;5.270;2024-02-26T13:31:31;20.60;56.80
10062;DHT22;5070;52.382;5.270;2024-02-26T13:33:59;20.60;56.90
10062;DHT22;5070;52.382;5.270;2024-02-26T13:36:29;20.60;57.00
10062;DHT22;5070;52.382;5.270;2024-02-26T13:38:57;20.60;57.20
10062;DHT22;5070;52.382;5.270;2024-02-26T13:41:26;20.50;57.30
10062;DHT22;5070;52.382;5.270;2024-02-26T13:43:54;20.50;57.40
10062;DHT22;5070;52.382;5.270;2024-02-26T13:46:24;20.50;57.50
10062;DHT22;5070;52.382;5.270;2024-02-26T13:48:53;20.50;57.50
10062;DHT22;5070;52.382;5.270;2024-02-26T13:51:21;20.50;57.30
10062;DHT22;5070;52.382;5.270;2024-02-26T13:53:51;20.40;58.40
10062;DHT22;5070;52.382;5.270;2024-02-26T13:56:19;20.40;58.80
10062;DHT22;5070;52.382;5.270;2024-02-26T13:58:47;20.40;58.60
10062;DHT22;5070;52.382;5.270;2024-02-26T14:01:15;20.40;58.80
10062;DHT22;5070;52.382;5.270;2024-02-26T14:03:43;20.40;58.30
10062;DHT22;5070;52.382;5.270;2024-02-26T14:06:11;20.30;58.20
10062;DHT22;5070;52.382;5.270;2024-02-26T14:08:40;20.30;58.10
10062;DHT22;5070;52.382;5.270;2024-02-26T14:11:09;20.30;58.00
10062;DHT22;5070;52.382;5.270;2024-02-26T14:13:37;20.30;57.90
10062;DHT22;5070;52.382;5.270;2024-02-26T14:16:08;20.30;58.00
10062;DHT22;5070;52.382;5.270;2024-02-26T14:18:37;20.30;57.80
10062;DHT22;5070;52.382;5.270;2024-02-26T14:21:05;20.30;57.60
10062;DHT22;5070;52.382;5.270;2024-02-26T14:23:33;20.30;57.90
10062;DHT22;5070;52.382;5.270;2024-02-26T14:26:04;20.30;57.40
10062;DHT22;5070;52.382;5.270;2024-02-26T14:28:33;20.40;57.10
10062;DHT22;5070;52.382;5.270;2024-02-26T14:31:05;20.40;56.90
10062;DHT22;5070;52.382;5.270;2024-02-26T14:33:34;20.50;56.80
10062;DHT22;5070;52.382;5.270;2024-02-26T14:36:06;20.60;56.60
10062;DHT22;5070;52.382;5.270;2024-02-26T14:38:34;20.60;56.80
10062;DHT22;5070;52.382;5.270;2024-02-26T14:41:03;20.60;56.60
10062;DHT22;5070;52.382;5.270;2024-02-26T14:43:32;20.70;56.40
10062;DHT22;5070;52.382;5.270;2024-02-26T14:46:01;20.80;56.30
10062;DHT22;5070;52.382;5.270;2024-02-26T14:48:30;20.80;56.30
10062;DHT22;5070;52.382;5.270;2024-02-26T14:50:59;20.80;56.20
10062;DHT22;5070;52.382;5.270;2024-02-26T14:53:27;20.80;56.10
10062;DHT22;5070;52.382;5.270;2024-02-26T14:55:57;20.90;56.10
10062;DHT22;5070;52.382;5.270;2024-02-26T14:58:28;20.90;56.20
10062;DHT22;5070;52.382;5.270;2024-02-26T15:00:57;21.10;92.40
10062;DHT22;5070;52.382;5.270;2024-02-26T15:03:26;21.20;90.60
10062;DHT22;5070;52.382;5.270;2024-02-26T15:05:54;21.10;82.20
10062;DHT22;5070;52.382;5.270;2024-02-26T15:08:22;21.10;75.40
10062;DHT22;5070;52.382;5.270;2024-02-26T15:10:50;21.10;72.20
10062;DHT22;5070;52.382;5.270;2024-02-26T15:13:18;21.10;70.50
10062;DHT22;5070;52.382;5.270;2024-02-26T15:15:46;21.10;69.80
10062;DHT22;5070;52.382;5.270;2024-02-26T15:18:15;21.10;68.30
10062;DHT22;5070;52.382;5.270;2024-02-26T15:20:44;21.10;69.00
10062;DHT22;5070;52.382;5.270;2024-02-26T15:23:15;21.10;65.80
10062;DHT22;5070;52.382;5.270;2024-02-26T15:25:44;21.10;64.90
10062;DHT22;5070;52.382;5.270;2024-02-26T15:28:12;21.10;64.50
10062;DHT22;5070;52.382;5.270;2024-02-26T15:30:42;21.00;64.00
10062;DHT22;5070;52.382;5.270;2024-02-26T15:33:10;21.00;63.70
10062;DHT22;5070;52.382;5.270;2024-02-26T15:35:40;21.00;63.40
10062;DHT22;5070;52.382;5.270;2024-02-26T15:38:11;21.00;63.20
10062;DHT22;5070;52.382;5.270;2024-02-26T15:40:40;21.00;63.10
10062;DHT22;5070;52.382;5.270;2024-02-26T15:43:09;20.90;63.30
10062;DHT22;5070;52.382;5.270;2024-02-26T15:45:41;20.90;67.10
10062;DHT22;5070;52.382;5.270;2024-02-26T15:48:09;20.90;67.20
10062;DHT22;5070;52.382;5.270;2024-02-26T15:50:40;20.90;65.30
10062;DHT22;5070;52.382;5.270;2024-02-26T15:53:08;20.90;65.20
10062;DHT22;5070;52.382;5.270;2024-02-26T15:55:37;20.80;64.60
10062;DHT22;5070;52.382;5.270;2024-02-26T15:58:08;20.80;66.60
10062;DHT22;5070;52.382;5.270;2024-02-26T16:00:39;20.80;66.30